sensor_id;sensor_type;location;lat;lon;timestamp;temperature;humidity
29713;DHT22;16623;53.632;10.016;2023-03-19T00:02:23;11.00;99.90
29713;DHT22;16623;53.632;10.016;2023-03-19T00:04:48;11.00;99.90
29713;DHT22;16623;53.632;10.016;2023-03-19T00:07:16;11.00;99.90
29713;DHT22;16623;53.632;10.016;2023-03-19T00:09:42;11.00;99.90
29713;DHT22;16623;53.632;10.016;2023-03-19T00:12:09;10.90;99.90
29713;DHT22;16623;53.632;10.016;2023-03-19T00:14:35;10.90;99.90
29713;DHT22;16623;53.632;10.016;2023-03-19T00:17:00;10.90;99.90
29713;DHT22;16623;53.632;10.016;2023-03-19T00:19:26;10.90;99.90
29713;DHT22;16623;53.632;10.016;2023-03-19T00:21:52;10.90;99.90
29713;DHT22;16623;53.632;10.016;2023-03-19T00:24:17;10.90;99.90
29713;DHT22;16623;53.632;10.016;2023-03-19T00:26:43;10.80;99.90
29713;DHT22;16623;53.632;10.016;2023-03-19T00:29:09;10.90;99.90
29713;DHT22;16623;53.632;10.016;2023-03-19T00:31:34;10.90;99.90
29713;DHT22;16623;53.632;10.016;2023-03-19T00:34:01;10.90;99.90
29713;DHT22;16623;53.632;10.016;2023-03-19T00:36:27;10.90;99.90
29713;DHT22;16623;53.632;10.016;2023-03-19T00:38:53;10.90;99.90
29713;DHT22;16623;53.632;10.016;2023-03-19T00:41:19;11.00;99.90
29713;DHT22;16623;53.632;10.016;2023-03-19T00:43:52;11.00;99.90
29713;DHT22;16623;53.632;10.016;2023-03-19T00:46:18;10.90;99.90
29713;DHT22;16623;53.632;10.016;2023-03-19T00:48:43;10.90;99.90
29713;DHT22;16623;53.632;10.016;2023-03-19T00:51:10;10.90;99.90
29713;DHT22;16623;53.632;10.016;2023-03-19T00:53:41;10.80;99.90
29713;DHT22;16623;53.632;10.016;2023-03-19T00:56:09;10.80;99.90
29713;DHT22;16623;53.632;10.016;2023-03-19T00:58:35;10.70;99.90
29713;DHT22;16623;53.632;10.016;2023-03-19T01:01:03;10.80;99.90
29713;DHT22;16623;53.632;10.016;2023-03-19T01:03:29;10.70;99.90
29713;DHT22;16623;53.632;10.016;2023-03-19T01:05:54;10.80;99.90
29713;DHT22;16623;53.632;10.016;2023-03-19T01:08:20;10.60;99.90
29713;DHT22;16623;53.632;10.016;2023-03-19T01:10:45;10.70;99.90
29713;DHT22;16623;53.632;10.016;2023-03-19T01:13:12;10.60;99.90
29713;DHT22;16623;53.632;10.016;2023-03-19T01:15:40;10.60;99.90
29713;DHT22;16623;53.632;10.016;2023-03-19T01:18:06;10.60;99.90
29713;DHT22;16623;53.632;10.016;2023-03-19T01:20:33;10.60;99.90
29713;DHT22;16623;53.632;10.016;2023-03-19T01:22:59;10.60;99.90
29713;DHT22;16623;53.632;10.016;2023-03-19T01:25:26;10.60;99.90
29713;DHT22;16623;53.632;10.016;2023-03-19T01:27:52;10.60;99.90
29713;DHT22;16623;53.632;10.016;2023-03-19T01:30:18;10.60;99.90
29713;DHT22;16623;53.632;10.016;2023-03-19T01:32:43;10.60;99.90
29713;DHT22;16623;53.632;10.016;2023-03-19T01:35:09;10.50;99.90
29713;DHT22;16623;53.632;10.016;2023-03-19T01:37:35;10.60;99.90
29713;DHT22;16623;53.632;10.016;2023-03-19T01:40:01;10.50;99.90
29713;DHT22;16623;53.632;10.016;2023-03-19T01:42:27;10.50;99.90
29713;DHT22;16623;53.632;10.016;2023-03-19T01:44:53;9.70;99.90
29713;DHT22;16623;53.632;10.016;2023-03-19T01:47:38;10.40;99.90
29713;DHT22;16623;53.632;10.016;2023-03-19T01:52:41;10.30;99.90
29713;DHT22;16623;53.632;10.016;2023-03-19T01:55:06;10.30;99.90
29713;DHT22;16623;53.632;10.016;2023-03-19T01:57:33;10.20;99.90
29713;DHT22;16623;53.632;10.016;2023-03-19T02:00:00;10.00;99.90
29713;DHT22;16623;53.632;10.016;2023-03-19T02:02:33;10.10;99.90
29713;DHT22;16623;53.632;10.016;2023-03-19T02:05:11;10.00;99.90
29713;DHT22;16623;53.632;10.016;2023-03-19T02:07:40;10.10;99.90
29713;DHT22;16623;53.632;10.016;2023-03-19T02:10:11;10.00;99.90
29713;DHT22;16623;53.632;10.016;2023-03-19T02:12:37;10.00;99.90
29713;DHT22;16623;53.632;10.016;2023-03-19T02:15:04;10.00;99.90
29713;DHT22;16623;53.632;10.016;2023-03-19T02:17:29;10.00;99.90
29713;DHT22;16623;53.632;10.016;2023-03-19T02:20:12;10.00;99.90
29713;DHT22;16623;53.632;10.016;2023-03-19T02:22:45;10.00;99.90
29713;DHT22;16623;53.632;10.016;2023-03-19T02:25:59;9.90;99.90
29713;DHT22;16623;53.632;10.016;2023-03-19T02:28:25;9.90;99.90
29713;DHT22;16623;53.632;10.016;2023-03-19T02:30:51;9.90;99.90
29713;DHT22;16623;53.632;10.016;2023-03-19T02:33:17;9.90;99.90
29713;DHT22;16623;53.632;10.016;2023-03-19T02:35:45;9.90;99.90
29713;DHT22;16623;53.632;10.016;2023-03-19T02:38:12;9.80;99.90
29713;DHT22;16623;53.632;10.016;2023-03-19T02:40:44;9.80;99.90
29713;DHT22;16623;53.632;10.016;2023-03-19T02:43:12;9.90;99.90
29713;DHT22;16623;53.632;10.016;2023-03-19T02:45:38;9.80;99.90
29713;DHT22;16623;53.632;10.016;2023-03-19T02:48:04;9.80;99.90
29713;DHT22;16623;53.632;10.016;2023-03-19T02:50:29;9.70;99.90
29713;DHT22;16623;53.632;10.016;2023-03-19T02:52:55;9.70;99.90
29713;DHT22;16623;53.632;10.016;2023-03-19T02:55:20;9.70;99.90
29713;DHT22;16623;53.632;10.016;2023-03-19T02:57:46;9.70;99.90
29713;DHT22;16623;53.632;10.016;2023-03-19T03:00:12;9.70;99.90
29713;DHT22;16623;53.632;10.016;2023-03-19T03:02:38;9.60;99.90
29713;DHT22;16623;53.632;10.016;2023-03-19T03:05:04;9.50;99.90
29713;DHT22;16623;53.632;10.016;2023-03-19T03:07:30;9.50;99.90
29713;DHT22;16623;53.632;10.016;2023-03-19T03:09:57;9.50;99.90
29713;DHT22;16623;53.632;10.016;2023-03-19T03:12:22;9.50;99.90
29713;DHT22;16623;53.632;10.016;2023-03-19T03:14:48;9.50;99.90
29713;DHT22;16623;53.632;10.016;2023-03-19T03:17:14;8.40;99.90
29713;DHT22;16623;53.632;10.016;2023-03-19T03:19:40;9.40;99.90
29713;DHT22;16623;53.632;10.016;2023-03-19T03:22:05;9.40;99.90
29713;DHT22;16623;53.632;10.016;2023-03-19T03:24:31;9.40;99.90
29713;DHT22;16623;53.632;10.016;2023-03-19T03:26:56;9.30;99.90
29713;DHT22;16623;53.632;10.016;2023-03-19T03:29:22;9.30;99.90
29713;DHT22;16623;53.632;10.016;2023-03-19T03:31:47;9.30;99.90
29713;DHT22;16623;53.632;10.016;2023-03-19T03:34:13;9.30;99.90
29713;DHT22;16623;53.632;10.016;2023-03-19T03:36:38;9.40;99.90
29713;DHT22;16623;53.632;10.016;2023-03-19T03:39:04;9.30;99.90
29713;DHT22;16623;53.632;10.016;2023-03-19T03:41:30;9.30;99.90
29713;DHT22;16623;53.632;10.016;2023-03-19T03:43:55;9.30;99.90
29713;DHT22;16623;53.632;10.016;2023-03-19T03:46:22;9.30;99.90
29713;DHT22;16623;53.632;10.016;2023-03-19T03:48:47;9.20;99.90
29713;DHT22;16623;53.632;10.016;2023-03-19T03:51:14;9.20;99.90
29713;DHT22;16623;53.632;10.016;2023-03-19T03:53:39;9.20;99.90
29713;DHT22;16623;53.632;10.016;2023-03-19T03:56:05;9.20;99.90
29713;DHT22;16623;53.632;10.016;2023-03-19T03:58:31;9.20;99.90
29713;DHT22;16623;53.632;10.016;2023-03-19T04:00:59;9.20;99.90
29713;DHT22;16623;53.632;10.016;2023-03-19T04:03:25;9.20;99.90
29713;DHT22;16623;53.632;10.016;2023-03-19T04:05:52;9.20;99.90
29713;DHT22;16623;53.632;10.016;2023-03-19T04:08:18;9.10;99.90
29713;DHT22;16623;53.632;10.016;2023-03-19T04:10:43;9.20;99.90
29713;DHT22;16623;53.632;10.016;2023-03-19T04:13:10;9.30;99.90
29713;DHT22;16623;53.632;10.016;2023-03-19T04:15:35;9.20;99.90
29713;DHT22;16623;53.632;10.016;2023-03-19T04:20:28;9.20;99.90
29713;DHT22;16623;53.632;10.016;2023-03-19T04:22:54;9.20;99.90
29713;DHT22;16623;53.632;10.016;2023-03-19T04:25:20;9.10;99.90
29713;DHT22;16623;53.632;10.016;2023-03-19T04:27:45;9.00;99.90
29713;DHT22;16623;53.632;10.016;2023-03-19T04:30:12;9.10;99.90
29713;DHT22;16623;53.632;10.016;2023-03-19T04:32:38;9.00;99.90
29713;DHT22;16623;53.632;10.016;2023-03-19T04:35:04;9.00;99.90
29713;DHT22;16623;53.632;10.016;2023-03-19T04:37:30;8.90;99.90
29713;DHT22;16623;53.632;10.016;2023-03-19T04:39:55;8.80;99.90
29713;DHT22;16623;53.632;10.016;2023-03-19T04:42:21;8.80;99.90
29713;DHT22;16623;53.632;10.016;2023-03-19T04:44:47;8.80;99.90
29713;DHT22;16623;53.632;10.016;2023-03-19T04:47:12;8.70;99.90
29713;DHT22;16623;53.632;10.016;2023-03-19T04:49:38;8.80;99.90
29713;DHT22;16623;53.632;10.016;2023-03-19T04:52:04;8.80;99.90
29713;DHT22;16623;53.632;10.016;2023-03-19T04:54:30;8.80;99.90
29713;DHT22;16623;53.632;10.016;2023-03-19T04:56:56;8.90;99.90
29713;DHT22;16623;53.632;10.016;2023-03-19T04:59:21;8.90;99.90
29713;DHT22;16623;53.632;10.016;2023-03-19T05:01:47;9.00;99.90
29713;DHT22;16623;53.632;10.016;2023-03-19T05:04:13;9.00;99.90
29713;DHT22;16623;53.632;10.016;2023-03-19T05:06:38;9.00;99.90
29713;DHT22;16623;53.632;10.016;2023-03-19T05:09:05;9.00;99.90
29713;DHT22;16623;53.632;10.016;2023-03-19T05:11:30;9.10;99.90
29713;DHT22;16623;53.632;10.016;2023-03-19T05:13:56;9.20;99.90
29713;DHT22;16623;53.632;10.016;2023-03-19T05:16:21;9.20;99.90
29713;DHT22;16623;53.632;10.016;2023-03-19T05:18:47;9.20;99.90
29713;DHT22;16623;53.632;10.016;2023-03-19T05:21:13;9.20;99.90
29713;DHT22;16623;53.632;10.016;2023-03-19T05:23:39;9.30;99.90
29713;DHT22;16623;53.632;10.016;2023-03-19T05:26:05;9.20;99.90
29713;DHT22;16623;53.632;10.016;2023-03-19T05:28:31;9.30;99.90
29713;DHT22;16623;53.632;10.016;2023-03-19T05:30:57;9.20;99.90
29713;DHT22;16623;53.632;10.016;2023-03-19T05:33:23;9.20;99.90
29713;DHT22;16623;53.632;10.016;2023-03-19T05:35:48;8.80;99.90
29713;DHT22;16623;53.632;10.016;2023-03-19T05:38:14;9.20;99.90
29713;DHT22;16623;53.632;10.016;2023-03-19T05:40:40;9.20;99.90
29713;DHT22;16623;53.632;10.016;2023-03-19T05:43:09;9.30;99.90
29713;DHT22;16623;53.632;10.016;2023-03-19T05:45:35;9.20;99.90
29713;DHT22;16623;53.632;10.016;2023-03-19T05:48:03;9.20;99.90
29713;DHT22;16623;53.632;10.016;2023-03-19T05:50:30;9.20;99.90
29713;DHT22;16623;53.632;10.016;2023-03-19T05:52:56;9.20;99.90
29713;DHT22;16623;53.632;10.016;2023-03-19T05:55:22;9.10;99.90
29713;DHT22;16623;53.632;10.016;2023-03-19T05:57:48;9.10;99.90
29713;DHT22;16623;53.632;10.016;2023-03-19T06:00:14;9.20;99.90
29713;DHT22;16623;53.632;10.016;2023-03-19T06:02:40;9.20;99.90
29713;DHT22;16623;53.632;10.016;2023-03-19T06:05:06;9.30;99.90
29713;DHT22;16623;53.632;10.016;2023-03-19T06:07:34;9.30;99.90
29713;DHT22;16623;53.632;10.016;2023-03-19T06:10:00;9.30;99.90
29713;DHT22;16623;53.632;10.016;2023-03-19T06:12:25;9.40;99.90
29713;DHT22;16623;53.632;10.016;2023-03-19T06:14:51;9.40;99.90
29713;DHT22;16623;53.632;10.016;2023-03-19T06:17:16;9.50;99.90
29713;DHT22;16623;53.632;10.016;2023-03-19T06:19:42;9.50;99.90
29713;DHT22;16623;53.632;10.016;2023-03-19T06:22:08;9.60;99.90
29713;DHT22;16623;53.632;10.016;2023-03-19T06:24:33;9.70;99.90
29713;DHT22;16623;53.632;10.016;2023-03-19T06:26:59;9.70;99.90
29713;DHT22;16623;53.632;10.016;2023-03-19T06:29:24;9.80;99.90
29713;DHT22;16623;53.632;10.016;2023-03-19T06:31:51;9.80;99.90
29713;DHT22;16623;53.632;10.016;2023-03-19T06:34:18;9.80;99.90
29713;DHT22;16623;53.632;10.016;2023-03-19T06:36:43;9.90;99.90
29713;DHT22;16623;53.632;10.016;2023-03-19T06:39:09;9.90;99.90
29713;DHT22;16623;53.632;10.016;2023-03-19T06:41:35;9.80;99.90
29713;DHT22;16623;53.632;10.016;2023-03-19T06:44:01;10.00;99.90
29713;DHT22;16623;53.632;10.016;2023-03-19T06:46:27;10.00;99.90
29713;DHT22;16623;53.632;10.016;2023-03-19T06:48:53;10.00;99.90
29713;DHT22;16623;53.632;10.016;2023-03-19T06:51:18;10.20;99.90
29713;DHT22;16623;53.632;10.016;2023-03-19T06:53:44;10.30;99.90
29713;DHT22;16623;53.632;10.016;2023-03-19T06:56:09;10.40;99.90
29713;DHT22;16623;53.632;10.016;2023-03-19T06:58:35;10.40;99.90
29713;DHT22;16623;53.632;10.016;2023-03-19T07:01:01;10.60;99.90
29713;DHT22;16623;53.632;10.016;2023-03-19T07:03:27;10.70;99.90
29713;DHT22;16623;53.632;10.016;2023-03-19T07:05:52;10.90;99.90
29713;DHT22;16623;53.632;10.016;2023-03-19T07:08:18;11.00;99.90
29713;DHT22;16623;53.632;10.016;2023-03-19T07:10:44;11.10;99.90
29713;DHT22;16623;53.632;10.016;2023-03-19T07:13:09;11.30;99.90
29713;DHT22;16623;53.632;10.016;2023-03-19T07:15:37;11.40;99.90
29713;DHT22;16623;53.632;10.016;2023-03-19T07:18:03;11.50;99.90
29713;DHT22;16623;53.632;10.016;2023-03-19T07:20:29;11.50;99.90
29713;DHT22;16623;53.632;10.016;2023-03-19T07:22:54;11.60;99.90
29713;DHT22;16623;53.632;10.016;2023-03-19T07:25:20;11.60;99.90
29713;DHT22;16623;53.632;10.016;2023-03-19T07:27:46;11.70;99.90
29713;DHT22;16623;53.632;10.016;2023-03-19T07:30:12;11.70;99.90
29713;DHT22;16623;53.632;10.016;2023-03-19T07:32:38;11.70;99.90
29713;DHT22;16623;53.632;10.016;2023-03-19T07:35:05;11.70;99.90
29713;DHT22;16623;53.632;10.016;2023-03-19T07:37:31;11.70;99.90
29713;DHT22;16623;53.632;10.016;2023-03-19T07:39:57;11.60;99.90
29713;DHT22;16623;53.632;10.016;2023-03-19T07:42:23;11.70;99.90
29713;DHT22;16623;53.632;10.016;2023-03-19T07:44:48;11.90;99.90
29713;DHT22;16623;53.632;10.016;2023-03-19T07:47:14;12.20;99.90
29713;DHT22;16623;53.632;10.016;2023-03-19T07:49:40;12.30;99.90
29713;DHT22;16623;53.632;10.016;2023-03-19T07:52:06;12.40;99.90
29713;DHT22;16623;53.632;10.016;2023-03-19T07:54:32;12.60;99.90
29713;DHT22;16623;53.632;10.016;2023-03-19T07:56:57;12.60;99.90
29713;DHT22;16623;53.632;10.016;2023-03-19T07:59:23;12.60;99.90
29713;DHT22;16623;53.632;10.016;2023-03-19T08:01:48;12.60;99.90
29713;DHT22;16623;53.632;10.016;2023-03-19T08:04:14;12.80;99.90
29713;DHT22;16623;53.632;10.016;2023-03-19T08:06:40;12.80;99.90
29713;DHT22;16623;53.632;10.016;2023-03-19T08:09:06;12.90;99.90
29713;DHT22;16623;53.632;10.016;2023-03-19T08:11:31;13.10;99.90
29713;DHT22;16623;53.632;10.016;2023-03-19T08:13:57;13.10;99.90
29713;DHT22;16623;53.632;10.016;2023-03-19T08:16:23;13.20;99.90
29713;DHT22;16623;53.632;10.016;2023-03-19T08:18:49;13.20;99.90
29713;DHT22;16623;53.632;10.016;2023-03-19T08:21:14;13.20;99.90
29713;DHT22;16623;53.632;10.016;2023-03-19T08:23:40;13.20;99.90
29713;DHT22;16623;53.632;10.016;2023-03-19T08:26:06;13.40;99.90
29713;DHT22;16623;53.632;10.016;2023-03-19T08:28:32;13.50;99.90
29713;DHT22;16623;53.632;10.016;2023-03-19T08:31:04;13.40;99.90
29713;DHT22;16623;53.632;10.016;2023-03-19T08:33:30;13.50;99.90
29713;DHT22;16623;53.632;10.016;2023-03-19T08:36:06;13.60;99.90
29713;DHT22;16623;53.632;10.016;2023-03-19T08:38:32;13.60;99.90
29713;DHT22;16623;53.632;10.016;2023-03-19T08:40:58;13.70;99.90
29713;DHT22;16623;53.632;10.016;2023-03-19T08:43:27;13.70;99.90
29713;DHT22;16623;53.632;10.016;2023-03-19T08:45:52;13.90;99.90
29713;DHT22;16623;53.632;10.016;2023-03-19T08:48:18;14.10;99.90
29713;DHT22;16623;53.632;10.016;2023-03-19T08:50:43;14.00;99.90
29713;DHT22;16623;53.632;10.016;2023-03-19T08:53:09;14.10;99.90
29713;DHT22;16623;53.632;10.016;2023-03-19T08:55:34;14.10;99.90
29713;DHT22;16623;53.632;10.016;2023-03-19T08:58:00;14.40;99.90
29713;DHT22;16623;53.632;10.016;2023-03-19T09:00:26;14.50;99.90
29713;DHT22;16623;53.632;10.016;2023-03-19T09:02:55;14.80;99.90
29713;DHT22;16623;53.632;10.016;2023-03-19T09:05:21;14.80;99.90
29713;DHT22;16623;53.632;10.016;2023-03-19T09:07:50;15.00;99.90
29713;DHT22;16623;53.632;10.016;2023-03-19T09:10:16;15.20;99.90
29713;DHT22;16623;53.632;10.016;2023-03-19T09:12:45;15.20;99.90
29713;DHT22;16623;53.632;10.016;2023-03-19T09:15:12;15.20;99.90
29713;DHT22;16623;53.632;10.016;2023-03-19T09:17:38;15.30;99.90
29713;DHT22;16623;53.632;10.016;2023-03-19T09:20:04;15.50;99.90
29713;DHT22;16623;53.632;10.016;2023-03-19T09:22:31;15.60;99.90
29713;DHT22;16623;53.632;10.016;2023-03-19T09:24:57;15.80;99.90
29713;DHT22;16623;53.632;10.016;2023-03-19T09:27:22;16.00;99.90
29713;DHT22;16623;53.632;10.016;2023-03-19T09:29:48;16.10;99.90
29713;DHT22;16623;53.632;10.016;2023-03-19T09:32:13;16.10;99.90
29713;DHT22;16623;53.632;10.016;2023-03-19T09:34:39;14.90;99.90
29713;DHT22;16623;53.632;10.016;2023-03-19T09:37:05;16.40;99.90
29713;DHT22;16623;53.632;10.016;2023-03-19T09:39:30;16.50;99.90
29713;DHT22;16623;53.632;10.016;2023-03-19T09:44:39;16.60;99.90
29713;DHT22;16623;53.632;10.016;2023-03-19T09:47:32;16.60;99.90
29713;DHT22;16623;53.632;10.016;2023-03-19T09:50:13;16.40;99.90
29713;DHT22;16623;53.632;10.016;2023-03-19T09:52:46;16.30;99.90
29713;DHT22;16623;53.632;10.016;2023-03-19T09:57:49;16.10;99.90
29713;DHT22;16623;53.632;10.016;2023-03-19T10:02:44;16.10;99.90
29713;DHT22;16623;53.632;10.016;2023-03-19T10:06:05;16.10;99.90
29713;DHT22;16623;53.632;10.016;2023-03-19T10:08:31;16.30;99.90
29713;DHT22;16623;53.632;10.016;2023-03-19T10:16:20;16.80;99.90
29713;DHT22;16623;53.632;10.016;2023-03-19T10:18:50;17.00;99.90
29713;DHT22;16623;53.632;10.016;2023-03-19T10:21:42;16.40;99.90
29713;DHT22;16623;53.632;10.016;2023-03-19T10:24:21;17.20;99.90
29713;DHT22;16623;53.632;10.016;2023-03-19T10:26:47;17.10;99.90
29713;DHT22;16623;53.632;10.016;2023-03-19T10:29:17;17.10;99.90
29713;DHT22;16623;53.632;10.016;2023-03-19T10:31:55;17.20;99.90
29713;DHT22;16623;53.632;10.016;2023-03-19T10:34:36;16.90;99.90
29713;DHT22;16623;53.632;10.016;2023-03-19T10:39:39;17.00;99.90
29713;DHT22;16623;53.632;10.016;2023-03-19T10:42:29;17.10;99.90
29713;DHT22;16623;53.632;10.016;2023-03-19T10:45:03;16.90;99.90
29713;DHT22;16623;53.632;10.016;2023-03-19T10:47:37;16.80;99.90
29713;DHT22;16623;53.632;10.016;2023-03-19T10:50:03;17.00;99.90
29713;DHT22;16623;53.632;10.016;2023-03-19T10:52:34;16.90;99.90
29713;DHT22;16623;53.632;10.016;2023-03-19T10:55:14;16.90;99.90
29713;DHT22;16623;53.632;10.016;2023-03-19T10:57:44;16.90;99.90
29713;DHT22;16623;53.632;10.016;2023-03-19T11:00:21;17.00;99.90
29713;DHT22;16623;53.632;10.016;2023-03-19T11:02:55;17.20;99.90
29713;DHT22;16623;53.632;10.016;2023-03-19T11:08:06;17.50;99.90
29713;DHT22;16623;53.632;10.016;2023-03-19T11:10:45;17.50;99.90
29713;DHT22;16623;53.632;10.016;2023-03-19T11:13:23;17.40;99.90
29713;DHT22;16623;53.632;10.016;2023-03-19T11:15:51;17.00;99.90
29713;DHT22;16623;53.632;10.016;2023-03-19T11:18:23;16.80;99.90
29713;DHT22;16623;53.632;10.016;2023-03-19T11:20:56;16.70;99.90
29713;DHT22;16623;53.632;10.016;2023-03-19T11:23:26;16.60;99.90
29713;DHT22;16623;53.632;10.016;2023-03-19T11:25:54;16.60;99.90
29713;DHT22;16623;53.632;10.016;2023-03-19T11:28:21;16.70;99.90
29713;DHT22;16623;53.632;10.016;2023-03-19T11:36:20;16.80;99.90
29713;DHT22;16623;53.632;10.016;2023-03-19T11:39:14;16.90;99.90
29713;DHT22;16623;53.632;10.016;2023-03-19T11:41:55;16.90;99.90
29713;DHT22;16623;53.632;10.016;2023-03-19T11:47:29;17.40;99.90
29713;DHT22;16623;53.632;10.016;2023-03-19T11:53:23;17.70;99.90
29713;DHT22;16623;53.632;10.016;2023-03-19T11:56:15;17.80;99.90
29713;DHT22;16623;53.632;10.016;2023-03-19T12:10:27;17.80;99.90
29713;DHT22;16623;53.632;10.016;2023-03-19T12:13:36;17.60;99.90
29713;DHT22;16623;53.632;10.016;2023-03-19T12:16:12;17.50;99.90
29713;DHT22;16623;53.632;10.016;2023-03-19T12:18:47;17.40;99.90
29713;DHT22;16623;53.632;10.016;2023-03-19T12:21:27;17.30;99.90
29713;DHT22;16623;53.632;10.016;2023-03-19T12:24:18;17.30;99.90
29713;DHT22;16623;53.632;10.016;2023-03-19T12:27:15;17.20;99.90
29713;DHT22;16623;53.632;10.016;2023-03-19T12:32:41;17.30;99.90
29713;DHT22;16623;53.632;10.016;2023-03-19T12:35:16;17.20;99.90
29713;DHT22;16623;53.632;10.016;2023-03-19T12:37:55;17.10;99.90
29713;DHT22;16623;53.632;10.016;2023-03-19T12:40:31;17.00;99.90
29713;DHT22;16623;53.632;10.016;2023-03-19T12:43:04;16.90;99.90
29713;DHT22;16623;53.632;10.016;2023-03-19T12:45:35;16.90;99.90
29713;DHT22;16623;53.632;10.016;2023-03-19T12:48:22;16.90;99.90
29713;DHT22;16623;53.632;10.016;2023-03-19T12:50:51;16.80;99.90
29713;DHT22;16623;53.632;10.016;2023-03-19T12:53:39;16.80;99.90
29713;DHT22;16623;53.632;10.016;2023-03-19T12:56:23;17.00;99.90
29713;DHT22;16623;53.632;10.016;2023-03-19T12:58:59;17.10;99.90
29713;DHT22;16623;53.632;10.016;2023-03-19T13:01:29;17.20;99.90
29713;DHT22;16623;53.632;10.016;2023-03-19T13:04:13;17.30;99.90
29713;DHT22;16623;53.632;10.016;2023-03-19T13:06:52;17.40;99.90
29713;DHT22;16623;53.632;10.016;2023-03-19T13:09:37;17.30;99.90
29713;DHT22;16623;53.632;10.016;2023-03-19T13:12:22;17.40;99.90
29713;DHT22;16623;53.632;10.016;2023-03-19T13:15:15;17.40;99.90
29713;DHT22;16623;53.632;10.016;2023-03-19T13:18:04;17.30;99.90
29713;DHT22;16623;53.632;10.016;2023-03-19T13:23:14;17.20;99.90
29713;DHT22;16623;53.632;10.016;2023-03-19T13:25:44;17.20;99.90
29713;DHT22;16623;53.632;10.016;2023-03-19T13:28:28;17.20;99.90
29713;DHT22;16623;53.632;10.016;2023-03-19T13:31:20;16.40;99.90
29713;DHT22;16623;53.632;10.016;2023-03-19T13:33:59;17.20;99.90
29713;DHT22;16623;53.632;10.016;2023-03-19T13:36:30;16.90;99.90
29713;DHT22;16623;53.632;10.016;2023-03-19T13:38:58;16.80;99.90
29713;DHT22;16623;53.632;10.016;2023-03-19T13:43:59;16.70;99.90
29713;DHT22;16623;53.632;10.016;2023-03-19T13:46:30;16.50;99.90
29713;DHT22;16623;53.632;10.016;2023-03-19T13:49:20;16.60;99.90
29713;DHT22;16623;53.632;10.016;2023-03-19T13:51:49;16.60;99.90
29713;DHT22;16623;53.632;10.016;2023-03-19T13:54:19;16.70;99.90
29713;DHT22;16623;53.632;10.016;2023-03-19T13:59:28;16.60;99.90
29713;DHT22;16623;53.632;10.016;2023-03-19T14:01:54;16.60;99.90
29713;DHT22;16623;53.632;10.016;2023-03-19T14:04:30;16.50;99.90
29713;DHT22;16623;53.632;10.016;2023-03-19T14:09:47;16.30;99.90
29713;DHT22;16623;53.632;10.016;2023-03-19T14:17:43;16.10;99.90
29713;DHT22;16623;53.632;10.016;2023-03-19T14:31:56;16.30;99.90
29713;DHT22;16623;53.632;10.016;2023-03-19T14:34:33;16.30;99.90
29713;DHT22;16623;53.632;10.016;2023-03-19T14:37:18;16.20;99.90
29713;DHT22;16623;53.632;10.016;2023-03-19T14:39:47;16.10;99.90
29713;DHT22;16623;53.632;10.016;2023-03-19T14:42:39;16.20;99.90
29713;DHT22;16623;53.632;10.016;2023-03-19T14:47:49;16.00;99.90
29713;DHT22;16623;53.632;10.016;2023-03-19T14:51:02;16.00;99.90
29713;DHT22;16623;53.632;10.016;2023-03-19T14:56:31;15.80;99.90
29713;DHT22;16623;53.632;10.016;2023-03-19T14:58:57;15.70;99.90
29713;DHT22;16623;53.632;10.016;2023-03-19T15:01:27;15.60;99.90
29713;DHT22;16623;53.632;10.016;2023-03-19T15:03:55;15.60;99.90
29713;DHT22;16623;53.632;10.016;2023-03-19T15:06:23;15.60;99.90
29713;DHT22;16623;53.632;10.016;2023-03-19T15:08:50;15.70;99.90
29713;DHT22;16623;53.632;10.016;2023-03-19T15:14:26;15.80;99.90
29713;DHT22;16623;53.632;10.016;2023-03-19T15:17:08;15.80;99.90
29713;DHT22;16623;53.632;10.016;2023-03-19T15:19:39;15.80;99.90
29713;DHT22;16623;53.632;10.016;2023-03-19T15:22:24;15.70;99.90
29713;DHT22;16623;53.632;10.016;2023-03-19T15:24:50;15.80;99.90
29713;DHT22;16623;53.632;10.016;2023-03-19T15:27:24;16.00;99.90
29713;DHT22;16623;53.632;10.016;2023-03-19T15:29:52;15.70;99.90
29713;DHT22;16623;53.632;10.016;2023-03-19T15:32:38;15.60;99.90
29713;DHT22;16623;53.632;10.016;2023-03-19T15:35:09;15.40;99.90
29713;DHT22;16623;53.632;10.016;2023-03-19T15:37:44;15.40;99.90
29713;DHT22;16623;53.632;10.016;2023-03-19T15:40:15;15.30;99.90
29713;DHT22;16623;53.632;10.016;2023-03-19T15:42:45;15.10;99.90
29713;DHT22;16623;53.632;10.016;2023-03-19T15:45:14;15.00;99.90
29713;DHT22;16623;53.632;10.016;2023-03-19T15:48:08;14.90;99.90
29713;DHT22;16623;53.632;10.016;2023-03-19T15:50:36;14.90;99.90
29713;DHT22;16623;53.632;10.016;2023-03-19T15:53:21;14.80;99.90
29713;DHT22;16623;53.632;10.016;2023-03-19T15:55:49;14.80;99.90
29713;DHT22;16623;53.632;10.016;2023-03-19T15:58:20;14.80;99.90
29713;DHT22;16623;53.632;10.016;2023-03-19T16:00:47;14.70;99.90
29713;DHT22;16623;53.632;10.016;2023-03-19T16:03:25;14.80;99.90
29713;DHT22;16623;53.632;10.016;2023-03-19T16:06:01;14.80;99.90
29713;DHT22;16623;53.632;10.016;2023-03-19T16:08:31;14.80;99.90
29713;DHT22;16623;53.632;10.016;2023-03-19T16:11:29;14.80;99.90
29713;DHT22;16623;53.632;10.016;2023-03-19T16:13:58;14.90;99.90
29713;DHT22;16623;53.632;10.016;2023-03-19T16:16:29;14.90;99.90
29713;DHT22;16623;53.632;10.016;2023-03-19T16:18:57;15.00;99.90
29713;DHT22;16623;53.632;10.016;2023-03-19T16:21:42;15.00;99.90
29713;DHT22;16623;53.632;10.016;2023-03-19T16:24:13;15.00;99.90
29713;DHT22;16623;53.632;10.016;2023-03-19T16:26:41;14.90;99.90
29713;DHT22;16623;53.632;10.016;2023-03-19T16:29:28;14.90;99.90
29713;DHT22;16623;53.632;10.016;2023-03-19T16:32:06;14.80;99.90
29713;DHT22;16623;53.632;10.016;2023-03-19T16:34:44;14.70;99.90
29713;DHT22;16623;53.632;10.016;2023-03-19T16:37:34;14.60;99.90
29713;DHT22;16623;53.632;10.016;2023-03-19T16:43:06;14.40;99.90
29713;DHT22;16623;53.632;10.016;2023-03-19T16:45:31;14.30;99.90
29713;DHT22;16623;53.632;10.016;2023-03-19T16:47:59;14.20;99.90
29713;DHT22;16623;53.632;10.016;2023-03-19T16:50:32;14.20;99.90
29713;DHT22;16623;53.632;10.016;2023-03-19T16:53:01;14.10;99.90
29713;DHT22;16623;53.632;10.016;2023-03-19T16:55:33;14.00;99.90
29713;DHT22;16623;53.632;10.016;2023-03-19T16:58:32;14.00;99.90
29713;DHT22;16623;53.632;10.016;2023-03-19T17:00:59;13.90;99.90
29713;DHT22;16623;53.632;10.016;2023-03-19T17:03:25;13.80;99.90
29713;DHT22;16623;53.632;10.016;2023-03-19T17:05:54;13.80;99.90
29713;DHT22;16623;53.632;10.016;2023-03-19T17:08:20;13.70;99.90